首页
METAR-TAF:

METAR-TAF

机场 :

Vero Beach Municipal Airport

Vero Beach, 佛罗里达州, 美国

纬度: 27-39-20N, 经度: 080-25-05W, 海拔: 7米

当前天气观测

该预报发布于19分钟前的03:53 UTC
风速4节,风向西
温度 17°C
湿度 77%
气压 1017 hPa
能見度: 16.1公里
天空无云

METAR: KVRB 230353Z AUTO 27004KT 10SM CLR 17/13 A3003 RMK AO2 SLP169 T01670133

时间: 23:12 (04:12 UTC)

预报

该预报发布于4小时和26分钟前的23:46 UTC
预报有效从23日的 00点(UTC)到 23日的 24点(UTC)
风速4节,风向西转西南
能見度: 10公里
少量云层高于3000英尺
散云层高于9000英尺
从 23日的 0900点(UTC)
风速3节,风向西
能見度: 10公里
少量云层高于1000英尺
散云层高于3000英尺
浅雾
从 23日的 1300点(UTC)
风速5节,风向西北
能見度: 10公里
少量云层高于1000英尺
散云层高于2500英尺
散云层高于4000英尺
从 23日的 1700点(UTC)
风速9节,风向北转东北
能見度: 10公里
少量云层高于1500英尺
散云层高于3000英尺
多云层高于9000英尺

TAF: KVRB 222346Z 2300/2324 25004KT P6SM FEW030 SCT090 FM230900 27003KT P6SM MIFG FEW010 SCT030 FM231300 32005KT P6SM FEW010 SCT025 SCT040 FM231700 02009KT P6SM FEW015 SCT030 BKN090

超过4000个机场的气象观测和天气预报(METAR&TAF报告)。

可查询的气象台以黄色和红色小点在地图上表示。

将鼠标移到小点上方,可查看气象台名称。

然后点击查看天气观测和预报。

如需切换地图:点击带黑十字的绿色按钮放大地图;点击带横线的绿色按钮缩小地图;或者点击绿色箭头查看邻近地区的地图。


METAR-TAF: